Time;durP1;ratioP1;P1;durP2;ratioP2;P2;SDS_P1;SDS_P2;PMS_P1;PMS_P2;Temp;Humidity;BMP_temperature;BMP_pressure;BME280_temperature;BME280_humidity;BME280_pressure;Samples;Min_cycle;Max_cycle;Signal;HPM_P1;HPM_P2
2023/03/29 00:01:40;;;;;;;4.40;2.28;;;;;;;;;;4847700;29;20505;-93
2023/03/29 00:04:08;;;;;;;4.03;2.08;;;;;;;;;;4878227;29;20044;-92
2023/03/29 00:09:21;;;;;;;8.60;2.97;;;;;;;;;;4861201;29;20136;-92
2023/03/29 00:11:53;;;;;;;5.40;2.13;;;;;;;;;;4868269;29;20276;-93
2023/03/29 00:14:30;;;;;;;;;;;;;;;;;;;;;
2023/03/29 00:16:57;;;;;;;3.72;2.33;;;;;;;;;;4871355;29;20060;-94
2023/03/29 00:19:25;;;;;;;6.00;2.85;;;;;;;;;;4879929;29;20048;-92
2023/03/29 00:21:51;;;;;;;8.07;2.80;;;;;;;;;;4874006;29;20033;-93
2023/03/29 00:24:47;;;;;;;7.25;3.25;;;;;;;;;;4862466;29;20060;-94
2023/03/29 00:27:17;;;;;;;5.97;3.22;;;;;;;;;;4870858;29;20063;-94
2023/03/29 00:29:43;;;;;;;6.50;2.55;;;;;;;;;;4850185;29;20133;-93
2023/03/29 00:32:10;;;;;;;7.80;2.90;;;;;;;;;;4885273;29;20036;-93
2023/03/29 00:34:37;;;;;;;5.68;3.20;;;;;;;;;;4868753;29;20025;-94
2023/03/29 00:37:07;;;;;;;4.90;2.60;;;;;;;;;;4877947;29;20058;-93
2023/03/29 00:39:33;;;;;;;6.35;2.85;;;;;;;;;;4882145;29;20045;-93
2023/03/29 00:42:00;;;;;;;8.57;3.40;;;;;;;;;;4870037;29;20037;-93
2023/03/29 00:44:51;;;;;;;5.10;2.80;;;;;;;;;;4851695;29;20041;-93
2023/03/29 00:47:21;;;;;;;2.65;1.27;;;;;;;;;;4881244;29;20433;-93
2023/03/29 00:49:51;;;;;;;6.68;2.70;;;;;;;;;;4871015;29;20054;-93
2023/03/29 00:52:23;;;;;;;6.85;2.25;;;;;;;;;;4855197;29;20044;-93
2023/03/29 00:54:52;;;;;;;4.40;2.55;;;;;;;;;;4860370;29;20037;-93
2023/03/29 00:57:23;;;;;;;7.15;2.33;;;;;;;;;;4862818;29;20395;-93
2023/03/29 00:59:58;;;;;;;2.83;1.58;;;;;;;;;;4867241;29;20033;-93
2023/03/29 01:02:38;;;;;;;7.07;2.88;;;;;;;;;;4879643;29;20048;-93
2023/03/29 01:05:14;;;;;;;16.00;2.78;;;;;;;;;;4863339;29;20064;-93
2023/03/29 01:07:46;;;;;;;5.07;2.72;;;;;;;;;;4885033;29;20142;-93
2023/03/29 01:10:17;;;;;;;2.75;1.63;;;;;;;;;;4863458;29;20044;-94
2023/03/29 01:12:48;;;;;;;8.50;3.00;;;;;;;;;;4867768;29;20052;-94
2023/03/29 01:15:20;;;;;;;8.63;2.90;;;;;;;;;;4882323;29;20060;-94
2023/03/29 01:17:49;;;;;;;7.10;3.05;;;;;;;;;;4878060;29;20040;-94
2023/03/29 01:20:21;;;;;;;5.63;2.30;;;;;;;;;;4865696;29;20040;-93
2023/03/29 01:23:01;;;;;;;7.40;2.30;;;;;;;;;;4881559;29;20045;-93
2023/03/29 01:25:28;;;;;;;4.63;2.08;;;;;;;;;;4869843;29;20120;-94
2023/03/29 01:28:03;;;;;;;4.72;1.95;;;;;;;;;;4863355;29;20048;-93
2023/03/29 01:30:33;;;;;;;4.32;2.65;;;;;;;;;;4885789;29;20100;-93
2023/03/29 01:33:06;;;;;;;7.30;2.97;;;;;;;;;;4873855;29;20032;-93
2023/03/29 01:35:43;;;;;;;5.60;3.05;;;;;;;;;;4876486;29;20112;-94
2023/03/29 01:38:23;;;;;;;5.20;2.30;;;;;;;;;;4891271;29;20097;-93
2023/03/29 01:40:49;;;;;;;8.68;2.80;;;;;;;;;;4872807;29;20098;-94
2023/03/29 01:43:52;;;;;;;4.32;2.53;;;;;;;;;;4846556;29;20047;-94
2023/03/29 01:49:53;;;;;;;12.25;1.80;;;;;;;;;;4873291;29;20041;-93
2023/03/29 01:52:28;;;;;;;2.58;1.73;;;;;;;;;;4791468;29;20297;-94
2023/03/29 01:55:07;;;;;;;5.30;2.38;;;;;;;;;;4841348;29;20063;-94
2023/03/29 01:57:35;;;;;;;7.15;3.05;;;;;;;;;;4856908;29;20037;-92
2023/03/29 02:00:09;;;;;;;4.97;2.47;;;;;;;;;;4848832;29;20380;-93
2023/03/29 02:02:36;;;;;;;5.45;2.75;;;;;;;;;;4853935;29;20112;-92
2023/03/29 02:05:08;;;;;;;14.07;2.95;;;;;;;;;;4848308;29;20118;-92
2023/03/29 02:07:36;;;;;;;9.23;2.60;;;;;;;;;;4863158;29;20037;-93
2023/03/29 02:10:03;;;;;;;6.18;2.97;;;;;;;;;;4842491;29;20030;-94
2023/03/29 02:12:42;;;;;;;9.93;2.97;;;;;;;;;;4848442;29;20502;-93
2023/03/29 02:15:13;;;;;;;11.13;4.00;;;;;;;;;;4852571;29;20166;-93
2023/03/29 02:17:52;;;;;;;3.88;1.58;;;;;;;;;;4861388;29;20565;-93
2023/03/29 02:20:27;;;;;;;11.07;3.90;;;;;;;;;;4860761;29;20042;-93
2023/03/29 02:23:08;;;;;;;5.28;3.03;;;;;;;;;;4876439;29;20045;-94
2023/03/29 02:26:05;;;;;;;;;;;;;;;;;;;;;
2023/03/29 02:28:29;;;;;;;6.32;3.40;;;;;;;;;;4870173;29;20045;-92
2023/03/29 02:31:05;;;;;;;7.38;3.30;;;;;;;;;;4853526;29;20040;-93
2023/03/29 02:33:53;;;;;;;9.10;2.55;;;;;;;;;;4856611;29;20037;-94
2023/03/29 02:36:22;;;;;;;14.82;3.50;;;;;;;;;;4863459;29;20033;-93
2023/03/29 02:38:48;;;;;;;11.50;3.63;;;;;;;;;;4876734;29;20034;-93
2023/03/29 02:41:16;;;;;;;15.30;3.17;;;;;;;;;;4841095;29;20045;-93
2023/03/29 02:43:45;;;;;;;16.45;4.05;;;;;;;;;;4858255;29;20034;-93
2023/03/29 02:46:21;;;;;;;11.90;2.72;;;;;;;;;;4880264;29;20037;-93
2023/03/29 02:48:56;;;;;;;8.95;2.50;;;;;;;;;;4863673;29;20049;-93
2023/03/29 02:51:25;;;;;;;8.20;3.38;;;;;;;;;;4846905;29;20050;-92
2023/03/29 02:53:57;;;;;;;7.90;3.70;;;;;;;;;;4864925;29;20033;-94
2023/03/29 02:56:24;;;;;;;11.48;3.75;;;;;;;;;;4859939;29;20252;-93
2023/03/29 02:58:55;;;;;;;7.03;3.33;;;;;;;;;;4856787;29;20037;-94
2023/03/29 03:01:25;;;;;;;9.52;3.80;;;;;;;;;;4850793;29;20178;-93
2023/03/29 03:03:51;;;;;;;9.02;3.15;;;;;;;;;;4861671;29;20029;-94
2023/03/29 03:06:29;;;;;;;7.35;3.08;;;;;;;;;;4837442;29;20041;-93
2023/03/29 03:08:56;;;;;;;10.50;4.22;;;;;;;;;;4879252;29;20129;-94
2023/03/29 03:11:23;;;;;;;5.45;2.15;;;;;;;;;;4871659;29;20044;-94
2023/03/29 03:13:51;;;;;;;6.05;2.38;;;;;;;;;;4866392;29;20065;-94
2023/03/29 03:16:17;;;;;;;14.48;4.10;;;;;;;;;;4864742;29;20368;-94
2023/03/29 03:18:49;;;;;;;10.30;4.20;;;;;;;;;;4837180;29;20044;-94
2023/03/29 03:21:15;;;;;;;10.25;4.15;;;;;;;;;;4857713;29;20037;-94
2023/03/29 03:23:49;;;;;;;6.55;3.33;;;;;;;;;;4865737;29;20065;-93
2023/03/29 03:26:16;;;;;;;10.07;3.63;;;;;;;;;;4835802;29;20509;-93
2023/03/29 03:28:44;;;;;;;12.82;4.60;;;;;;;;;;4853142;29;20494;-93
2023/03/29 03:31:20;;;;;;;16.25;5.10;;;;;;;;;;4858907;29;20117;-92
2023/03/29 03:33:46;;;;;;;6.78;3.20;;;;;;;;;;4865912;29;20045;-93
2023/03/29 03:36:12;;;;;;;6.70;3.05;;;;;;;;;;4866659;29;20479;-94
2023/03/29 03:38:41;;;;;;;7.13;3.85;;;;;;;;;;4849374;29;20085;-95
2023/03/29 03:41:10;;;;;;;5.93;3.60;;;;;;;;;;4880180;29;20055;-92
2023/03/29 03:43:36;;;;;;;8.05;2.38;;;;;;;;;;4878271;29;20040;-93
2023/03/29 03:46:04;;;;;;;10.35;3.58;;;;;;;;;;4887179;29;20040;-92
2023/03/29 03:48:32;;;;;;;7.50;4.25;;;;;;;;;;4869196;29;20036;-93
2023/03/29 03:50:58;;;;;;;8.88;3.80;;;;;;;;;;4876512;29;20026;-94
2023/03/29 03:53:26;;;;;;;10.02;4.60;;;;;;;;;;4863775;29;20041;-93
2023/03/29 03:55:54;;;;;;;8.40;4.10;;;;;;;;;;4878563;29;20032;-93
2023/03/29 03:58:23;;;;;;;9.88;4.10;;;;;;;;;;4865199;29;20026;-94
2023/03/29 04:00:59;;;;;;;11.25;3.97;;;;;;;;;;4875378;29;20085;-93
2023/03/29 04:03:28;;;;;;;9.20;4.45;;;;;;;;;;4883489;29;20129;-93
2023/03/29 04:05:54;;;;;;;8.45;3.15;;;;;;;;;;4861474;29;20036;-93
2023/03/29 04:08:21;;;;;;;9.88;3.97;;;;;;;;;;4869763;29;20085;-93
2023/03/29 04:10:55;;;;;;;9.52;3.97;;;;;;;;;;4852965;29;20033;-94
2023/03/29 04:13:21;;;;;;;17.92;3.92;;;;;;;;;;4868566;29;20180;-93
2023/03/29 04:15:54;;;;;;;11.15;5.00;;;;;;;;;;4867644;29;20422;-94
2023/03/29 04:18:21;;;;;;;8.38;4.68;;;;;;;;;;4879492;29;20052;-93
2023/03/29 04:20:48;;;;;;;13.95;5.47;;;;;;;;;;4878135;29;20049;-93
2023/03/29 04:23:23;;;;;;;11.32;4.68;;;;;;;;;;4868824;29;20029;-93
2023/03/29 04:25:54;;;;;;;10.50;4.45;;;;;;;;;;4879203;29;20497;-93
2023/03/29 04:28:26;;;;;;;14.48;5.28;;;;;;;;;;4866325;29;20029;-94
2023/03/29 04:31:01;;;;;;;10.43;5.15;;;;;;;;;;4882592;29;20102;-93
2023/03/29 04:33:28;;;;;;;11.43;5.40;;;;;;;;;;4847792;29;20234;-94
2023/03/29 04:35:54;;;;;;;9.93;4.50;;;;;;;;;;4864623;29;20116;-92
2023/03/29 04:38:32;;;;;;;12.60;4.93;;;;;;;;;;4864168;29;20057;-92
2023/03/29 04:41:00;;;;;;;5.75;3.00;;;;;;;;;;4861991;29;20079;-93
2023/03/29 04:43:28;;;;;;;6.88;4.97;;;;;;;;;;4853964;29;20573;-94
2023/03/29 04:45:55;;;;;;;16.48;6.65;;;;;;;;;;4853420;29;20098;-94
2023/03/29 04:48:21;;;;;;;4.63;2.47;;;;;;;;;;4863010;29;20029;-94
2023/03/29 04:50:48;;;;;;;15.00;5.22;;;;;;;;;;4872141;29;20071;-93
2023/03/29 04:53:14;;;;;;;15.77;5.60;;;;;;;;;;4856424;29;20030;-94
2023/03/29 04:55:40;;;;;;;12.02;5.90;;;;;;;;;;4872377;29;20025;-93
2023/03/29 04:58:30;;;;;;;11.70;5.70;;;;;;;;;;4894608;29;20030;-94
2023/03/29 05:01:00;;;;;;;8.18;4.40;;;;;;;;;;4870551;29;20044;-93
2023/03/29 05:03:39;;;;;;;;;;;;;;;;;;;;;
2023/03/29 05:06:07;;;;;;;7.60;3.53;;;;;;;;;;4874916;29;20092;-93
2023/03/29 05:08:54;;;;;;;9.70;5.13;;;;;;;;;;4885046;29;20740;-93
2023/03/29 05:11:25;;;;;;;11.32;5.22;;;;;;;;;;4881967;29;20041;-94
2023/03/29 05:13:51;;;;;;;8.93;2.95;;;;;;;;;;4867464;29;20353;-94
2023/03/29 05:16:18;;;;;;;11.57;5.18;;;;;;;;;;4870139;29;20093;-94
2023/03/29 05:18:44;;;;;;;13.43;5.80;;;;;;;;;;4866999;29;20033;-94
2023/03/29 05:21:12;;;;;;;8.88;4.15;;;;;;;;;;4866252;29;20048;-93
2023/03/29 05:23:45;;;;;;;11.25;5.85;;;;;;;;;;4865017;29;20072;-94
2023/03/29 05:26:14;;;;;;;14.65;6.18;;;;;;;;;;4878706;29;20418;-94
2023/03/29 05:28:44;;;;;;;9.35;4.88;;;;;;;;;;4877332;29;20040;-92
2023/03/29 05:31:13;;;;;;;16.80;5.50;;;;;;;;;;4867353;29;20044;-92
2023/03/29 05:33:39;;;;;;;11.80;5.97;;;;;;;;;;4874536;29;20236;-93
2023/03/29 05:36:12;;;;;;;11.18;5.90;;;;;;;;;;4863978;29;20049;-93
2023/03/29 05:38:45;;;;;;;12.90;6.53;;;;;;;;;;4866686;29;20045;-94
2023/03/29 05:41:17;;;;;;;10.73;6.18;;;;;;;;;;4855751;29;20053;-94
2023/03/29 05:43:43;;;;;;;10.00;5.40;;;;;;;;;;4845673;29;20475;-93
2023/03/29 05:46:11;;;;;;;12.55;4.95;;;;;;;;;;4833355;29;20090;-93
2023/03/29 05:48:43;;;;;;;12.52;6.30;;;;;;;;;;4871847;29;20098;-92
2023/03/29 05:51:10;;;;;;;15.75;6.47;;;;;;;;;;4873290;29;20120;-93
2023/03/29 05:53:57;;;;;;;13.38;5.93;;;;;;;;;;4844265;29;20033;-93
2023/03/29 05:56:24;;;;;;;16.48;5.68;;;;;;;;;;4870879;29;20324;-94
2023/03/29 05:58:52;;;;;;;13.45;5.82;;;;;;;;;;4841015;29;20486;-93
2023/03/29 06:01:31;;;;;;;18.30;7.00;;;;;;;;;;4839471;29;20663;-92
2023/03/29 06:03:57;;;;;;;11.55;5.25;;;;;;;;;;4860161;29;20380;-94
2023/03/29 06:06:24;;;;;;;9.43;4.93;;;;;;;;;;4858625;29;20326;-94
2023/03/29 06:08:50;;;;;;;12.27;4.78;;;;;;;;;;4850889;29;20040;-93
2023/03/29 06:11:39;;;;;;;15.38;5.88;;;;;;;;;;4874387;29;20028;-93
2023/03/29 06:14:23;;;;;;;;;;;;;;;;;;;;;
2023/03/29 06:16:49;;;;;;;17.23;6.25;;;;;;;;;;4863268;29;20036;-93
2023/03/29 06:19:21;;;;;;;13.13;5.72;;;;;;;;;;4830277;29;20045;-94
2023/03/29 06:21:48;;;;;;;14.60;6.35;;;;;;;;;;4855969;29;20040;-94
2023/03/29 06:24:15;;;;;;;13.70;6.20;;;;;;;;;;4855113;29;20034;-94
2023/03/29 06:26:41;;;;;;;9.52;4.65;;;;;;;;;;4855397;29;20043;-94
2023/03/29 06:29:08;;;;;;;8.10;4.10;;;;;;;;;;4834615;29;20021;-93
2023/03/29 06:31:42;;;;;;;10.82;5.32;;;;;;;;;;4859684;29;20034;-94
2023/03/29 06:34:08;;;;;;;7.85;4.30;;;;;;;;;;4841694;29;20062;-94
2023/03/29 06:36:34;;;;;;;18.15;6.07;;;;;;;;;;4842251;29;20030;-94
2023/03/29 06:39:07;;;;;;;11.55;5.78;;;;;;;;;;4871101;29;20056;-94
2023/03/29 06:41:37;;;;;;;9.85;6.10;;;;;;;;;;4856443;29;20125;-94
2023/03/29 06:44:07;;;;;;;12.20;6.10;;;;;;;;;;4844255;29;20094;-95
2023/03/29 06:46:39;;;;;;;;;;;;;;;;;;4867942;29;20037;-94
2023/03/29 06:49:05;;;;;;;;;;;;;;;;;;4857165;29;20368;-94
2023/03/29 06:51:32;;;;;;;14.60;6.35;;;;;;;;;;4856115;29;19919;-95
2023/03/29 06:54:03;;;;;;;15.45;5.40;;;;;;;;;;4848460;29;20056;-94
2023/03/29 06:56:33;;;;;;;12.82;5.82;;;;;;;;;;4866665;29;20033;-93
2023/03/29 06:58:59;;;;;;;13.88;6.43;;;;;;;;;;4862315;29;20053;-96
2023/03/29 07:01:33;;;;;;;14.55;5.22;;;;;;;;;;4853325;29;20041;-93
2023/03/29 07:04:03;;;;;;;23.20;6.03;;;;;;;;;;4860602;29;20049;-94
2023/03/29 07:09:32;;;;;;;4.63;2.55;;;;;;;;;;4797895;29;20039;-95
2023/03/29 07:11:59;;;;;;;22.20;8.27;;;;;;;;;;4840677;29;20441;-95
2023/03/29 07:14:30;;;;;;;17.88;5.45;;;;;;;;;;4851007;29;20041;-95
2023/03/29 07:17:00;;;;;;;10.50;5.88;;;;;;;;;;4869100;29;20072;-94
2023/03/29 07:19:29;;;;;;;7.88;4.55;;;;;;;;;;4846651;29;20084;-94
2023/03/29 07:21:57;;;;;;;13.52;6.32;;;;;;;;;;4862321;29;20041;-95
2023/03/29 07:24:26;;;;;;;16.33;5.47;;;;;;;;;;4869251;29;20068;-93
2023/03/29 07:26:53;;;;;;;15.40;6.90;;;;;;;;;;4847561;29;20032;-93
2023/03/29 07:29:25;;;;;;;13.65;6.82;;;;;;;;;;4845655;29;20082;-93
2023/03/29 07:32:26;;;;;;;29.58;6.70;;;;;;;;;;4848803;29;20042;-93
2023/03/29 07:34:57;;;;;;;12.70;6.27;;;;;;;;;;4838930;29;20517;-94
2023/03/29 07:37:23;;;;;;;10.52;5.22;;;;;;;;;;4847416;29;20310;-94
2023/03/29 07:39:58;;;;;;;14.43;5.55;;;;;;;;;;4851517;29;20049;-93
2023/03/29 07:42:27;;;;;;;14.40;6.78;;;;;;;;;;4860894;29;20395;-93
2023/03/29 07:44:57;;;;;;;15.05;5.28;;;;;;;;;;4857098;29;20030;-95
2023/03/29 07:47:23;;;;;;;16.05;6.82;;;;;;;;;;4850987;29;20042;-93
2023/03/29 07:49:53;;;;;;;13.18;7.13;;;;;;;;;;4869246;29;20037;-93
2023/03/29 07:52:22;;;;;;;6.32;3.05;;;;;;;;;;4853729;29;20070;-94
2023/03/29 07:54:49;;;;;;;10.40;5.85;;;;;;;;;;4853439;29;20394;-93
2023/03/29 07:57:17;;;;;;;10.98;3.75;;;;;;;;;;4837433;29;20237;-94
2023/03/29 07:59:50;;;;;;;16.38;5.63;;;;;;;;;;4851167;29;20039;-94
2023/03/29 08:02:16;;;;;;;14.30;6.07;;;;;;;;;;4856607;29;20035;-94
2023/03/29 08:05:00;;;;;;;9.93;5.60;;;;;;;;;;4857678;29;20052;-94
2023/03/29 08:10:17;;;;;;;12.57;5.18;;;;;;;;;;4781020;30;20035;-94
2023/03/29 08:12:46;;;;;;;18.15;5.68;;;;;;;;;;4854516;29;21055;-93
2023/03/29 08:15:31;;;;;;;11.48;6.13;;;;;;;;;;4874986;29;20058;-93
2023/03/29 08:18:21;;;;;;;15.82;6.57;;;;;;;;;;4875902;29;20010;-95
2023/03/29 08:20:47;;;;;;;7.80;3.55;;;;;;;;;;4854911;29;20121;-95
2023/03/29 08:23:20;;;;;;;14.57;6.10;;;;;;;;;;4868900;29;20490;-94
2023/03/29 08:25:46;;;;;;;7.35;4.07;;;;;;;;;;4868758;29;20544;-94
2023/03/29 08:28:17;;;;;;;6.65;3.45;;;;;;;;;;4877260;29;20115;-94
2023/03/29 08:30:57;;;;;;;11.48;5.40;;;;;;;;;;4878072;29;20044;-93
2023/03/29 08:33:36;;;;;;;10.32;5.63;;;;;;;;;;4858593;29;20037;-92
2023/03/29 08:36:02;;;;;;;10.93;5.68;;;;;;;;;;4877128;29;20118;-93
2023/03/29 08:38:28;;;;;;;11.05;5.28;;;;;;;;;;4877212;29;20042;-93
2023/03/29 08:40:55;;;;;;;9.80;5.50;;;;;;;;;;4849534;29;20045;-94
2023/03/29 08:43:30;;;;;;;10.18;5.57;;;;;;;;;;4888431;29;20041;-94
2023/03/29 08:46:06;;;;;;;12.38;5.13;;;;;;;;;;4879627;29;20045;-93
2023/03/29 08:48:32;;;;;;;;;;;;;;;;;;4862243;29;20042;-95
2023/03/29 08:50:58;;;;;;;;;;;;;;;;;;4861510;29;20851;-92
2023/03/29 08:53:47;;;;;;;7.32;4.13;;;;;;;;;;4875165;29;19912;-94
2023/03/29 08:56:17;;;;;;;9.85;5.30;;;;;;;;;;4876824;29;20034;-96
2023/03/29 08:58:59;;;;;;;10.60;5.13;;;;;;;;;;4863464;29;20021;-96
2023/03/29 09:02:11;;;;;;;;;;;;;;;;;;;;;
2023/03/29 09:04:49;;;;;;;13.18;4.25;;;;;;;;;;4878213;29;20061;-96
2023/03/29 09:10:36;;;;;;;15.95;5.25;;;;;;;;;;4874025;29;20045;-96
2023/03/29 09:13:32;;;;;;;12.55;6.47;;;;;;;;;;4873802;29;20054;-96
2023/03/29 13:34:08;;;;;;;7.13;4.40;;;;;;;;;;751255;23;20408;-93
2023/03/29 13:36:53;;;;;;;13.13;7.57;;;;;;;;;;4899905;29;20068;-96
2023/03/29 13:39:25;;;;;;;16.67;7.57;;;;;;;;;;4892584;29;20044;-96
2023/03/29 13:41:53;;;;;;;14.75;7.85;;;;;;;;;;4907737;29;20070;-95
2023/03/29 13:44:23;;;;;;;12.20;7.05;;;;;;;;;;4889299;29;20064;-96
2023/03/29 13:46:52;;;;;;;19.17;8.38;;;;;;;;;;4885510;29;20093;-96
2023/03/29 13:49:21;;;;;;;8.55;5.45;;;;;;;;;;4874343;29;20040;-96
2023/03/29 13:52:14;;;;;;;12.98;4.57;;;;;;;;;;4892738;29;20679;-96
2023/03/29 13:54:50;;;;;;;10.77;6.00;;;;;;;;;;4886899;29;20033;-96
2023/03/29 13:57:31;;;;;;;11.63;7.60;;;;;;;;;;4906825;29;20060;-95
2023/03/29 13:59:59;;;;;;;18.23;7.53;;;;;;;;;;4894330;29;20060;-96
2023/03/29 14:02:37;;;;;;;10.80;6.25;;;;;;;;;;4890021;29;20100;-96
2023/03/29 14:05:05;;;;;;;13.32;8.02;;;;;;;;;;4885769;29;20189;-96
2023/03/29 14:07:34;;;;;;;18.88;7.40;;;;;;;;;;4892360;29;20052;-96
2023/03/29 14:10:00;;;;;;;19.08;7.38;;;;;;;;;;4878512;29;20033;-96
2023/03/29 14:12:35;;;;;;;13.23;7.45;;;;;;;;;;4891792;29;20039;-96
2023/03/29 14:15:03;;;;;;;12.48;7.43;;;;;;;;;;4893378;29;20021;-96
2023/03/29 14:17:36;;;;;;;11.38;6.43;;;;;;;;;;4899829;29;20029;-96
2023/03/29 14:20:08;;;;;;;11.07;6.47;;;;;;;;;;4893062;29;20040;-96
2023/03/29 14:22:37;;;;;;;15.95;6.88;;;;;;;;;;4893581;29;20092;-96
2023/03/29 14:25:15;;;;;;;11.48;7.30;;;;;;;;;;4888534;29;20058;-96
2023/03/29 14:27:48;;;;;;;12.10;6.22;;;;;;;;;;4894552;29;20108;-96
2023/03/29 14:30:43;;;;;;;14.45;7.20;;;;;;;;;;4880088;29;20052;-96
2023/03/29 14:33:11;;;;;;;15.50;5.80;;;;;;;;;;4881870;29;20033;-96
2023/03/29 14:35:45;;;;;;;14.38;5.72;;;;;;;;;;4880183;29;20059;-96
2023/03/29 14:38:12;;;;;;;14.30;7.20;;;;;;;;;;4870674;29;20070;-96
2023/03/29 14:40:41;;;;;;;15.73;6.57;;;;;;;;;;4897563;29;20036;-96
2023/03/29 14:43:09;;;;;;;11.73;5.35;;;;;;;;;;4872156;29;20552;-96
2023/03/29 14:45:49;;;;;;;10.73;6.32;;;;;;;;;;4884266;29;20037;-95
2023/03/29 14:48:16;;;;;;;8.82;5.47;;;;;;;;;;4874739;29;20378;-96
2023/03/29 14:50:43;;;;;;;10.48;6.75;;;;;;;;;;4873863;29;20025;-95
2023/03/29 14:53:20;;;;;;;15.23;6.10;;;;;;;;;;4896619;29;20028;-96
2023/03/29 14:55:50;;;;;;;15.23;6.30;;;;;;;;;;4913124;29;20026;-96
2023/03/29 14:58:27;;;;;;;11.70;6.43;;;;;;;;;;4898497;29;20032;-95
2023/03/29 15:00:54;;;;;;;14.13;6.10;;;;;;;;;;4901349;29;20028;-95
2023/03/29 15:03:24;;;;;;;12.40;5.82;;;;;;;;;;4884896;29;20076;-96
2023/03/29 15:06:12;;;;;;;13.38;6.88;;;;;;;;;;4898561;29;20028;-96
2023/03/29 17:58:12;;;;;;;23.60;11.25;;;;;;;;;;756249;23;20345;-94
2023/03/29 18:00:38;;;;;;;17.98;10.40;;;;;;;;;;4898788;29;20044;-94
2023/03/29 18:03:15;;;;;;;25.05;12.38;;;;;;;;;;4872700;29;20079;-94
2023/03/29 18:05:42;;;;;;;25.83;12.65;;;;;;;;;;4869554;29;20032;-95
2023/03/29 18:08:08;;;;;;;22.95;12.55;;;;;;;;;;4868383;29;20621;-94
2023/03/29 18:10:35;;;;;;;22.55;12.10;;;;;;;;;;4865080;29;20703;-94
2023/03/29 18:13:02;;;;;;;22.55;12.52;;;;;;;;;;4897775;29;20029;-92
2023/03/29 18:15:28;;;;;;;24.83;12.70;;;;;;;;;;4871189;29;20502;-92
2023/03/29 18:17:55;;;;;;;23.02;12.05;;;;;;;;;;4884941;29;20115;-93
2023/03/29 18:20:21;;;;;;;25.15;13.38;;;;;;;;;;4866570;29;20599;-94
2023/03/29 18:22:47;;;;;;;24.13;12.30;;;;;;;;;;4887768;29;20033;-93
2023/03/29 18:25:13;;;;;;;27.85;14.27;;;;;;;;;;4870868;29;20032;-93
2023/03/29 18:27:41;;;;;;;23.27;12.65;;;;;;;;;;4885186;29;20331;-93
2023/03/29 18:30:07;;;;;;;23.67;11.05;;;;;;;;;;4898252;29;20064;-93
2023/03/29 18:32:33;;;;;;;26.13;12.50;;;;;;;;;;4882220;29;20029;-94
2023/03/29 18:35:01;;;;;;;31.50;15.13;;;;;;;;;;4869438;29;20064;-94
2023/03/29 18:37:36;;;;;;;26.92;13.15;;;;;;;;;;4866796;29;20020;-96
2023/03/29 18:40:06;;;;;;;27.35;14.02;;;;;;;;;;4882720;29;20621;-93
2023/03/29 18:42:32;;;;;;;30.73;16.02;;;;;;;;;;4884168;29;20056;-93
2023/03/29 18:44:59;;;;;;;36.40;16.38;;;;;;;;;;4876338;29;20046;-94
2023/03/29 18:47:25;;;;;;;36.53;16.42;;;;;;;;;;4882043;29;20037;-93
2023/03/29 18:49:52;;;;;;;36.78;16.95;;;;;;;;;;4866158;29;20049;-93
2023/03/29 18:52:19;;;;;;;42.05;20.02;;;;;;;;;;4851984;29;20029;-94
2023/03/29 18:54:46;;;;;;;38.35;18.90;;;;;;;;;;4851568;29;20057;-93
2023/03/29 18:57:12;;;;;;;38.58;17.75;;;;;;;;;;4866159;29;20432;-94
2023/03/29 18:59:38;;;;;;;35.85;17.00;;;;;;;;;;4848677;29;20167;-93
2023/03/29 19:02:05;;;;;;;30.42;15.43;;;;;;;;;;4864253;29;20041;-94
2023/03/29 19:04:34;;;;;;;34.97;16.45;;;;;;;;;;4863224;29;20033;-94
2023/03/29 19:07:03;;;;;;;32.13;16.88;;;;;;;;;;4866407;29;20033;-94
2023/03/29 19:09:30;;;;;;;33.50;16.50;;;;;;;;;;4866343;29;20025;-94
2023/03/29 19:11:56;;;;;;;33.60;18.00;;;;;;;;;;4856965;29;20042;-94
2023/03/29 19:14:24;;;;;;;32.85;15.55;;;;;;;;;;4886192;29;20037;-94
2023/03/29 19:16:52;;;;;;;34.03;16.10;;;;;;;;;;4851000;29;20033;-93
2023/03/29 19:19:19;;;;;;;38.83;16.95;;;;;;;;;;4870613;29;20029;-94
2023/03/29 19:21:46;;;;;;;32.63;17.10;;;;;;;;;;4887172;29;20029;-95
2023/03/29 19:24:12;;;;;;;38.30;16.95;;;;;;;;;;4886086;29;20028;-93
2023/03/29 19:26:39;;;;;;;32.65;16.83;;;;;;;;;;4847986;29;20057;-93
2023/03/29 19:29:05;;;;;;;34.60;16.52;;;;;;;;;;4867774;29;20040;-93
2023/03/29 19:31:32;;;;;;;34.55;17.42;;;;;;;;;;4871460;29;20033;-93
2023/03/29 19:33:58;;;;;;;35.83;16.98;;;;;;;;;;4854681;29;20030;-93
2023/03/29 19:36:25;;;;;;;34.00;17.67;;;;;;;;;;4870450;29;20136;-94
2023/03/29 19:38:54;;;;;;;34.95;16.38;;;;;;;;;;4850261;29;20132;-93
2023/03/29 19:41:20;;;;;;;32.67;16.63;;;;;;;;;;4868273;29;20040;-93
2023/03/29 19:43:47;;;;;;;31.40;16.98;;;;;;;;;;4857398;29;20037;-92
2023/03/29 19:46:14;;;;;;;34.90;17.05;;;;;;;;;;4868707;29;20032;-93
2023/03/29 19:48:41;;;;;;;33.13;16.17;;;;;;;;;;4853426;29;20062;-93
2023/03/29 19:51:08;;;;;;;34.53;16.52;;;;;;;;;;4868533;29;20085;-93
2023/03/29 19:53:38;;;;;;;33.75;17.95;;;;;;;;;;4855203;29;20038;-92
2023/03/29 19:56:09;;;;;;;42.20;18.13;;;;;;;;;;4851343;29;20021;-91
2023/03/29 19:58:38;;;;;;;31.77;17.70;;;;;;;;;;4871145;29;20082;-92
2023/03/29 20:01:04;;;;;;;34.08;15.95;;;;;;;;;;4857162;29;20040;-93
2023/03/29 20:03:32;;;;;;;36.58;17.55;;;;;;;;;;4870233;29;20033;-92
2023/03/29 20:06:02;;;;;;;35.58;18.95;;;;;;;;;;4852870;29;20036;-93
2023/03/29 20:08:28;;;;;;;31.52;17.05;;;;;;;;;;4846032;29;20135;-93
2023/03/29 20:10:58;;;;;;;30.40;15.30;;;;;;;;;;4853962;29;20040;-94
2023/03/29 20:13:24;;;;;;;34.45;17.55;;;;;;;;;;4866437;29;20097;-92
2023/03/29 20:15:51;;;;;;;36.80;17.48;;;;;;;;;;4877727;29;20389;-92
2023/03/29 20:18:17;;;;;;;33.75;16.73;;;;;;;;;;4850903;29;20101;-92
2023/03/29 20:20:45;;;;;;;38.60;17.05;;;;;;;;;;4867953;29;20048;-93
2023/03/29 20:23:14;;;;;;;37.97;18.45;;;;;;;;;;4855368;29;20045;-91
2023/03/29 20:25:43;;;;;;;39.20;17.85;;;;;;;;;;4876557;29;20037;-92
2023/03/29 20:28:11;;;;;;;35.90;17.60;;;;;;;;;;4873254;29;20060;-93
2023/03/29 20:30:38;;;;;;;32.58;16.98;;;;;;;;;;4872832;29;20036;-92
2023/03/29 20:33:06;;;;;;;33.67;17.20;;;;;;;;;;4855997;29;20136;-92
2023/03/29 20:35:32;;;;;;;35.42;17.45;;;;;;;;;;4855297;29;20104;-93
2023/03/29 20:37:58;;;;;;;35.63;15.75;;;;;;;;;;4869686;29;20032;-91
2023/03/29 20:40:25;;;;;;;31.65;17.45;;;;;;;;;;4870934;29;20041;-92
2023/03/29 20:42:54;;;;;;;43.40;18.65;;;;;;;;;;4853581;29;20037;-92
2023/03/29 20:45:20;;;;;;;35.33;18.02;;;;;;;;;;4857686;29;20448;-93
2023/03/29 20:47:56;;;;;;;39.17;18.70;;;;;;;;;;4855966;29;20044;-93
2023/03/29 20:50:25;;;;;;;31.88;17.05;;;;;;;;;;4869086;29;20037;-93
2023/03/29 20:52:53;;;;;;;32.60;16.42;;;;;;;;;;4867944;29;20126;-93
2023/03/29 20:55:22;;;;;;;34.33;16.08;;;;;;;;;;4854029;29;20494;-91
2023/03/29 20:57:57;;;;;;;43.45;17.10;;;;;;;;;;4864462;29;20041;-92
2023/03/29 21:00:23;;;;;;;33.35;17.30;;;;;;;;;;4873162;29;20064;-92
2023/03/29 21:02:51;;;;;;;32.13;16.05;;;;;;;;;;4865958;29;20529;-92
2023/03/29 21:05:17;;;;;;;33.53;17.05;;;;;;;;;;4868241;29;20029;-92
2023/03/29 21:07:46;;;;;;;36.08;16.10;;;;;;;;;;4871208;29;20513;-93
2023/03/29 21:10:13;;;;;;;34.53;17.48;;;;;;;;;;4871057;29;20136;-93
2023/03/29 21:12:40;;;;;;;32.65;15.00;;;;;;;;;;4867744;29;20482;-92
2023/03/29 21:15:12;;;;;;;30.13;16.17;;;;;;;;;;4881156;29;20112;-92
2023/03/29 21:17:38;;;;;;;31.65;16.42;;;;;;;;;;4881641;29;20065;-94
2023/03/29 21:20:11;;;;;;;34.25;18.13;;;;;;;;;;4858440;29;20047;-93
2023/03/29 21:22:38;;;;;;;32.13;17.08;;;;;;;;;;4882866;29;20144;-93
2023/03/29 21:25:06;;;;;;;26.45;14.38;;;;;;;;;;4867015;29;20037;-93
2023/03/29 21:27:33;;;;;;;31.65;16.08;;;;;;;;;;4868494;29;22092;-93
2023/03/29 21:30:07;;;;;;;26.38;15.80;;;;;;;;;;4871226;29;20549;-92
2023/03/29 21:32:33;;;;;;;28.88;15.45;;;;;;;;;;4867161;29;20029;-93
2023/03/29 21:35:00;;;;;;;29.67;15.18;;;;;;;;;;4854153;29;20059;-94
2023/03/29 21:37:26;;;;;;;33.78;17.98;;;;;;;;;;4863748;29;20037;-94
2023/03/29 21:39:52;;;;;;;28.88;17.00;;;;;;;;;;4844085;29;20068;-94
2023/03/29 21:42:18;;;;;;;36.65;18.00;;;;;;;;;;4849931;29;20060;-93
2023/03/29 21:44:44;;;;;;;35.40;17.25;;;;;;;;;;4868002;29;20037;-94
2023/03/29 21:47:10;;;;;;;32.60;17.65;;;;;;;;;;4885188;29;20054;-94
2023/03/29 21:49:37;;;;;;;34.28;17.55;;;;;;;;;;4862932;29;20036;-94
2023/03/29 21:52:03;;;;;;;35.40;18.63;;;;;;;;;;4857943;29;20097;-94
2023/03/29 21:54:29;;;;;;;36.50;17.58;;;;;;;;;;4851558;29;20064;-93
2023/03/29 21:56:55;;;;;;;36.20;17.92;;;;;;;;;;4867285;29;20028;-93
2023/03/29 21:59:21;;;;;;;39.33;20.52;;;;;;;;;;4865107;29;20037;-93
2023/03/29 22:01:47;;;;;;;35.70;19.73;;;;;;;;;;4852999;29;20398;-93
2023/03/29 22:04:13;;;;;;;36.40;19.48;;;;;;;;;;4869186;29;20036;-93
2023/03/29 22:06:39;;;;;;;35.55;17.67;;;;;;;;;;4856416;29;20082;-94
2023/03/29 22:09:06;;;;;;;40.47;20.35;;;;;;;;;;4851066;29;20045;-93
2023/03/29 22:11:33;;;;;;;38.70;20.10;;;;;;;;;;4856785;29;20390;-93
2023/03/29 22:13:59;;;;;;;38.63;19.98;;;;;;;;;;4873811;29;20124;-93
2023/03/29 22:16:27;;;;;;;36.15;18.60;;;;;;;;;;4867690;29;20036;-93
2023/03/29 22:18:53;;;;;;;39.08;20.05;;;;;;;;;;4877782;29;20029;-93